Time;durP1;ratioP1;P1;durP2;ratioP2;P2;SDS_P1;SDS_P2;PMS_P1;PMS_P2;Temp;Humidity;BMP_temperature;BMP_pressure;BME280_temperature;BME280_humidity;BME280_pressure;Samples;Min_cycle;Max_cycle;Signal;HPM_P1;HPM_P2
2023/08/09 00:00:46;;;;;;;8.20;4.23;;;14.60;99.90;;;;;;5030932;28;20075;-70
2023/08/09 00:03:12;;;;;;;8.10;5.07;;;14.50;99.90;;;;;;5030428;28;20026;-70
2023/08/09 00:05:38;;;;;;;9.93;5.73;;;14.50;99.90;;;;;;5028262;28;20021;-75
2023/08/09 00:08:04;;;;;;;11.80;4.77;;;14.50;99.90;;;;;;5028479;28;20072;-82
2023/08/09 00:10:30;;;;;;;16.77;6.40;;;14.40;99.90;;;;;;5024453;28;20038;-70
2023/08/09 00:12:55;;;;;;;9.00;4.80;;;14.40;99.90;;;;;;5021252;28;20412;-70
2023/08/09 00:15:21;;;;;;;9.30;4.67;;;14.40;99.90;;;;;;5032394;28;20030;-82
2023/08/09 00:17:47;;;;;;;8.50;4.90;;;14.30;99.90;;;;;;5023371;28;20037;-70
2023/08/09 00:20:13;;;;;;;9.30;4.72;;;14.30;99.90;;;;;;5023877;28;20037;-70
2023/08/09 00:22:40;;;;;;;7.10;5.10;;;14.30;99.90;;;;;;5032931;28;20170;-70
2023/08/09 00:25:08;;;;;;;10.82;5.18;;;14.30;99.90;;;;;;5023265;28;20033;-70
2023/08/09 00:27:34;;;;;;;8.35;4.93;;;14.30;99.90;;;;;;5047072;28;20041;-70
2023/08/09 00:30:00;;;;;;;7.50;4.70;;;14.30;99.90;;;;;;5051230;28;20033;-81
2023/08/09 00:32:26;;;;;;;7.70;4.90;;;14.30;99.90;;;;;;5035891;28;20316;-70
2023/08/09 00:34:52;;;;;;;11.77;4.50;;;14.20;99.90;;;;;;5039223;28;20045;-70
2023/08/09 00:37:18;;;;;;;10.87;4.97;;;14.20;99.90;;;;;;5036314;28;20021;-70
2023/08/09 00:39:44;;;;;;;10.48;5.10;;;14.20;99.90;;;;;;5030155;28;20028;-82
2023/08/09 00:42:09;;;;;;;11.20;4.70;;;14.20;99.90;;;;;;5034928;28;20029;-70
2023/08/09 00:44:35;;;;;;;11.23;4.77;;;14.20;99.90;;;;;;5029581;28;20033;-70
2023/08/09 00:47:01;;;;;;;11.20;4.77;;;14.30;99.90;;;;;;5031107;28;20115;-70
2023/08/09 00:49:27;;;;;;;9.43;5.00;;;14.30;99.90;;;;;;5028273;28;20037;-71
2023/08/09 00:51:53;;;;;;;10.10;4.63;;;14.30;99.90;;;;;;5027739;28;20413;-70
2023/08/09 00:54:20;;;;;;;11.13;5.70;;;14.30;99.90;;;;;;5028713;28;20360;-70
2023/08/09 00:56:46;;;;;;;10.60;5.35;;;14.30;99.90;;;;;;5034424;28;20043;-70
2023/08/09 00:59:12;;;;;;;8.00;4.60;;;14.30;99.90;;;;;;5026687;28;20033;-70
2023/08/09 01:01:39;;;;;;;11.40;5.73;;;14.20;99.90;;;;;;5029157;28;20052;-70
2023/08/09 01:04:05;;;;;;;9.20;6.03;;;14.30;99.90;;;;;;5031474;28;20029;-70
2023/08/09 01:06:36;;;;;;;10.43;6.40;;;14.30;99.90;;;;;;5032490;28;20638;-70
2023/08/09 01:09:33;;;;;;;11.35;6.32;;;14.30;99.90;;;;;;5031921;28;20306;-70
2023/08/09 01:12:07;;;;;;;11.23;6.80;;;14.30;99.90;;;;;;5032130;28;20064;-70
2023/08/09 01:14:36;;;;;;;12.40;7.03;;;14.30;99.90;;;;;;5034474;28;20025;-70
2023/08/09 01:17:05;;;;;;;12.02;6.88;;;14.30;99.90;;;;;;5027082;28;20101;-84
2023/08/09 01:19:34;;;;;;;11.27;6.30;;;14.20;99.90;;;;;;5029398;28;20017;-70
2023/08/09 01:22:15;;;;;;;11.93;6.25;;;14.20;99.90;;;;;;5028910;28;20030;-70
2023/08/09 01:24:42;;;;;;;12.73;6.45;;;14.20;99.90;;;;;;5031748;28;20022;-70
2023/08/09 01:27:08;;;;;;;;;;;14.20;99.90;;;;;;5031496;28;20311;-70
2023/08/09 01:29:35;;;;;;;9.45;6.07;;;14.10;99.90;;;;;;5028018;28;19916;-83
2023/08/09 01:32:01;;;;;;;10.13;6.38;;;14.10;99.90;;;;;;5026368;28;20041;-70
2023/08/09 01:34:27;;;;;;;10.33;5.93;;;14.10;99.90;;;;;;5029329;28;20340;-70
2023/08/09 01:36:54;;;;;;;12.80;6.78;;;14.00;99.90;;;;;;5031828;28;20447;-70
2023/08/09 01:39:26;;;;;;;11.20;6.10;;;14.00;99.90;;;;;;5037765;28;20072;-70
2023/08/09 01:41:52;;;;;;;10.65;5.93;;;14.00;99.90;;;;;;5024020;28;20032;-70
2023/08/09 01:44:19;;;;;;;10.13;6.00;;;14.00;99.90;;;;;;5034145;28;20034;-71
2023/08/09 01:46:46;;;;;;;9.63;5.80;;;14.00;99.90;;;;;;5031878;28;20109;-70
2023/08/09 01:49:15;;;;;;;;;;;14.00;99.90;;;;;;5034806;28;20064;-71
2023/08/09 01:51:41;;;;;;;8.82;5.35;;;13.90;99.90;;;;;;5030329;28;20268;-70
2023/08/09 01:54:08;;;;;;;9.63;5.80;;;14.00;99.90;;;;;;5050080;28;20080;-70
2023/08/09 01:56:35;;;;;;;9.32;5.13;;;13.90;99.90;;;;;;5028751;28;20075;-85
2023/08/09 01:59:00;;;;;;;;;;;13.90;99.90;;;;;;5030179;28;20029;-70
2023/08/09 02:01:26;;;;;;;15.07;5.78;;;13.90;99.90;;;;;;5046710;28;20207;-70
2023/08/09 02:03:53;;;;;;;11.50;5.37;;;13.80;99.90;;;;;;5033052;28;20420;-70
2023/08/09 02:06:18;;;;;;;10.32;5.35;;;13.80;99.90;;;;;;5017995;28;20030;-83
2023/08/09 02:08:44;;;;;;;8.70;4.73;;;13.80;99.90;;;;;;5017364;28;20042;-70
2023/08/09 02:11:10;;;;;;;7.78;4.40;;;13.80;99.90;;;;;;5020017;28;20052;-70
2023/08/09 02:13:37;;;;;;;6.90;4.73;;;13.80;99.90;;;;;;5030941;28;20033;-70
2023/08/09 02:16:05;;;;;;;;;;;13.80;99.90;;;;;;5034119;28;20113;-71
2023/08/09 02:18:30;;;;;;;10.85;4.32;;;13.80;99.90;;;;;;5023692;28;19913;-82
2023/08/09 02:20:59;;;;;;;6.83;4.60;;;13.80;99.90;;;;;;5028570;28;20034;-71
2023/08/09 02:23:25;;;;;;;5.85;4.22;;;13.80;99.90;;;;;;5023700;28;20166;-71
2023/08/09 02:25:54;;;;;;;6.90;4.45;;;13.80;99.90;;;;;;5033240;28;20029;-70
2023/08/09 02:28:20;;;;;;;5.90;4.47;;;13.80;99.90;;;;;;5022284;28;20037;-70
2023/08/09 02:30:46;;;;;;;6.07;4.22;;;13.80;99.90;;;;;;5025726;28;20018;-70
2023/08/09 02:33:12;;;;;;;6.80;4.45;;;13.70;99.90;;;;;;5026002;28;20041;-71
2023/08/09 02:36:07;;;;;;;7.87;4.63;;;13.70;99.90;;;;;;5026798;28;20045;-70
2023/08/09 02:38:33;;;;;;;6.57;4.35;;;13.60;99.90;;;;;;5019074;28;20403;-70
2023/08/09 02:41:04;;;;;;;7.15;4.60;;;13.70;99.90;;;;;;5022156;28;20030;-71
2023/08/09 02:43:30;;;;;;;7.07;4.43;;;13.60;99.90;;;;;;5009068;28;20204;-80
2023/08/09 02:45:56;;;;;;;5.90;4.60;;;13.60;99.90;;;;;;5024621;28;20417;-70
2023/08/09 02:48:23;;;;;;;6.90;4.50;;;13.60;99.90;;;;;;5022799;28;20283;-70
2023/08/09 02:50:49;;;;;;;5.28;3.95;;;13.60;99.90;;;;;;5022392;28;20068;-70
2023/08/09 02:53:15;;;;;;;5.68;3.83;;;13.50;99.90;;;;;;5021671;28;20044;-70
2023/08/09 02:55:42;;;;;;;5.35;3.90;;;13.50;99.90;;;;;;5022515;28;20076;-71
2023/08/09 02:58:07;;;;;;;7.35;3.95;;;13.50;99.90;;;;;;5027605;28;20368;-70
2023/08/09 03:00:33;;;;;;;4.57;3.33;;;13.40;99.90;;;;;;5026536;28;20057;-80
2023/08/09 03:03:00;;;;;;;4.43;3.35;;;13.40;99.90;;;;;;5019325;28;20061;-71
2023/08/09 03:05:26;;;;;;;4.22;3.67;;;13.40;99.90;;;;;;5007703;28;20380;-71
2023/08/09 03:07:52;;;;;;;4.32;2.85;;;13.30;99.90;;;;;;5018530;28;20310;-70
2023/08/09 03:10:18;;;;;;;3.27;2.70;;;13.30;99.90;;;;;;5025188;28;20040;-70
2023/08/09 03:12:44;;;;;;;3.40;2.70;;;13.20;99.90;;;;;;5022881;28;20052;-70
2023/08/09 03:15:10;;;;;;;3.05;2.38;;;13.20;99.90;;;;;;5017554;28;20042;-70
2023/08/09 03:17:37;;;;;;;2.65;1.90;;;13.20;99.90;;;;;;5034394;28;20029;-70
2023/08/09 03:20:10;;;;;;;2.80;2.17;;;13.10;99.90;;;;;;5051244;28;20033;-71
2023/08/09 03:22:36;;;;;;;5.72;2.05;;;13.10;99.90;;;;;;5021616;28;20030;-70
2023/08/09 03:25:02;;;;;;;3.70;1.70;;;13.00;99.90;;;;;;5031166;28;20048;-70
2023/08/09 03:27:27;;;;;;;4.67;1.57;;;13.00;99.90;;;;;;5034953;28;20029;-70
2023/08/09 03:29:53;;;;;;;3.33;1.80;;;12.90;99.90;;;;;;5025670;28;20026;-71
2023/08/09 03:32:19;;;;;;;29.23;1.93;;;12.90;99.90;;;;;;5023198;28;20409;-70
2023/08/09 03:34:44;;;;;;;1.73;1.40;;;12.90;99.90;;;;;;5032805;28;20491;-71
2023/08/09 03:37:10;;;;;;;2.97;1.90;;;12.90;99.90;;;;;;5052125;28;20108;-70
2023/08/09 03:39:36;;;;;;;3.07;1.97;;;12.90;99.90;;;;;;5039198;28;20057;-71
2023/08/09 03:42:02;;;;;;;7.00;2.07;;;12.80;99.90;;;;;;5028861;28;20451;-71
2023/08/09 03:44:27;;;;;;;1.33;1.07;;;12.80;99.90;;;;;;5018890;28;20030;-71
2023/08/09 03:46:55;;;;;;;5.30;1.17;;;12.80;99.90;;;;;;5026457;28;20025;-70
2023/08/09 03:49:21;;;;;;;5.35;1.08;;;12.70;99.90;;;;;;5023602;28;20026;-70
2023/08/09 03:51:46;;;;;;;1.83;1.10;;;12.60;99.90;;;;;;5033859;28;20025;-71
2023/08/09 03:54:12;;;;;;;1.67;1.57;;;12.60;99.90;;;;;;5036758;28;20409;-70
2023/08/09 03:56:37;;;;;;;2.37;1.87;;;12.60;99.90;;;;;;5030094;28;20520;-71
2023/08/09 03:59:03;;;;;;;3.77;2.03;;;12.60;99.90;;;;;;5024743;28;20314;-70
2023/08/09 04:01:29;;;;;;;3.60;2.80;;;12.60;99.90;;;;;;5045323;28;20033;-79
2023/08/09 04:03:54;;;;;;;3.40;2.30;;;12.60;99.90;;;;;;5036428;28;20030;-70
2023/08/09 04:06:20;;;;;;;3.53;2.17;;;12.60;99.90;;;;;;5035700;28;20033;-70
2023/08/09 04:08:46;;;;;;;2.23;2.03;;;12.50;99.90;;;;;;5036251;28;20056;-70
2023/08/09 04:11:12;;;;;;;3.63;2.13;;;12.50;99.90;;;;;;5037290;28;20064;-70
2023/08/09 04:13:37;;;;;;;2.50;1.97;;;12.60;99.90;;;;;;5038907;28;20025;-70
2023/08/09 04:16:03;;;;;;;3.40;2.37;;;12.60;99.90;;;;;;5031469;28;20420;-70
2023/08/09 04:18:29;;;;;;;4.10;2.28;;;12.50;99.90;;;;;;5032387;28;20024;-70
2023/08/09 04:20:55;;;;;;;3.33;2.33;;;12.50;99.90;;;;;;5036430;28;20120;-71
2023/08/09 04:23:21;;;;;;;4.17;2.50;;;12.60;99.90;;;;;;5037199;28;20025;-70
2023/08/09 04:25:47;;;;;;;2.97;2.10;;;12.60;99.90;;;;;;5034093;28;20069;-70
2023/08/09 04:28:12;;;;;;;3.37;2.20;;;12.60;99.90;;;;;;5036756;28;20029;-70
2023/08/09 04:30:38;;;;;;;3.13;2.50;;;12.60;99.90;;;;;;5051719;28;20037;-70
2023/08/09 04:33:04;;;;;;;3.45;2.40;;;12.70;99.90;;;;;;5017885;28;20413;-70
2023/08/09 04:35:33;;;;;;;3.77;2.50;;;12.70;99.90;;;;;;5033535;28;20072;-70
2023/08/09 04:38:03;;;;;;;4.03;3.05;;;12.70;99.90;;;;;;5022747;28;20101;-70
2023/08/09 04:40:30;;;;;;;3.78;2.72;;;12.60;99.90;;;;;;5034411;28;20167;-70
2023/08/09 04:42:55;;;;;;;3.22;2.53;;;12.60;99.90;;;;;;5035023;28;20041;-70
2023/08/09 04:45:21;;;;;;;5.27;3.33;;;12.60;99.90;;;;;;5032672;28;20075;-70
2023/08/09 04:47:48;;;;;;;6.87;3.23;;;12.60;99.90;;;;;;5026765;28;20033;-70
2023/08/09 04:50:13;;;;;;;7.40;3.47;;;12.70;99.90;;;;;;5035066;28;20057;-70
2023/08/09 04:52:39;;;;;;;22.67;4.03;;;12.80;99.90;;;;;;5018752;28;20140;-70
2023/08/09 04:55:05;;;;;;;12.37;3.87;;;12.90;99.90;;;;;;5017069;28;20376;-70
2023/08/09 04:57:31;;;;;;;12.13;3.53;;;13.00;99.90;;;;;;5030508;28;20017;-70
2023/08/09 04:59:57;;;;;;;5.70;3.80;;;13.20;99.90;;;;;;5036841;28;20107;-70
2023/08/09 05:02:23;;;;;;;7.03;4.45;;;13.20;99.90;;;;;;5018730;28;20444;-71
2023/08/09 05:04:49;;;;;;;5.73;3.80;;;13.30;99.90;;;;;;5022991;28;20030;-70
2023/08/09 05:07:15;;;;;;;7.10;3.77;;;13.40;99.90;;;;;;5028385;28;20041;-70
2023/08/09 05:09:41;;;;;;;7.60;4.50;;;13.40;99.90;;;;;;5037209;28;20096;-70
2023/08/09 05:12:07;;;;;;;6.50;4.20;;;13.50;99.90;;;;;;5034582;28;20040;-70
2023/08/09 05:14:32;;;;;;;8.43;5.13;;;13.50;99.90;;;;;;5025953;28;20037;-78
2023/08/09 05:16:58;;;;;;;8.47;4.67;;;13.50;99.90;;;;;;5027458;28;20030;-70
2023/08/09 05:19:24;;;;;;;6.83;4.47;;;13.60;99.90;;;;;;5045767;28;20032;-71
2023/08/09 05:21:50;;;;;;;9.17;5.00;;;13.70;99.90;;;;;;5048500;28;20037;-70
2023/08/09 05:24:16;;;;;;;18.60;5.33;;;13.70;99.90;;;;;;5052099;28;20438;-70
2023/08/09 05:26:41;;;;;;;9.93;5.13;;;13.70;99.90;;;;;;5040745;28;20033;-70
2023/08/09 05:29:07;;;;;;;8.93;5.03;;;13.80;99.90;;;;;;5031949;28;20038;-70
2023/08/09 05:31:33;;;;;;;9.10;5.73;;;13.80;99.90;;;;;;5040012;28;20035;-70
2023/08/09 05:33:59;;;;;;;8.90;5.40;;;13.90;99.90;;;;;;5043800;28;20506;-70
2023/08/09 05:36:25;;;;;;;10.10;5.90;;;14.00;99.90;;;;;;5027600;28;20032;-70
2023/08/09 05:38:51;;;;;;;8.55;5.85;;;14.10;99.90;;;;;;5024352;28;20044;-70
2023/08/09 05:41:17;;;;;;;11.20;6.03;;;14.20;99.90;;;;;;5046802;28;20025;-70
2023/08/09 05:43:42;;;;;;;25.37;8.90;;;14.20;99.90;;;;;;5030666;28;20358;-70
2023/08/09 05:46:08;;;;;;;23.57;8.73;;;14.30;99.90;;;;;;5033951;28;20882;-70
2023/08/09 05:48:34;;;;;;;21.47;8.97;;;14.30;99.90;;;;;;5026380;28;20104;-70
2023/08/09 05:51:00;;;;;;;18.53;7.83;;;14.40;99.90;;;;;;5029666;28;20060;-70
2023/08/09 05:53:25;;;;;;;13.30;7.13;;;14.40;99.90;;;;;;5028642;28;20109;-70
2023/08/09 05:55:51;;;;;;;16.03;8.23;;;14.50;99.90;;;;;;5029099;28;20340;-70
2023/08/09 05:58:17;;;;;;;12.93;7.53;;;14.50;99.90;;;;;;5026442;28;20025;-70
2023/08/09 06:00:43;;;;;;;16.57;7.67;;;14.50;99.90;;;;;;5028661;28;20057;-70
2023/08/09 06:03:08;;;;;;;11.27;6.13;;;14.50;99.90;;;;;;5028510;28;20029;-70
2023/08/09 06:05:34;;;;;;;10.80;6.63;;;14.60;99.90;;;;;;5028418;28;20036;-70
2023/08/09 06:08:00;;;;;;;12.93;6.37;;;14.60;99.90;;;;;;5025456;28;20052;-70
2023/08/09 06:10:26;;;;;;;9.40;6.03;;;14.60;99.90;;;;;;5029558;28;20064;-70
2023/08/09 06:12:53;;;;;;;11.73;6.47;;;14.70;99.90;;;;;;5026277;28;20041;-70
2023/08/09 06:15:19;;;;;;;16.52;6.75;;;14.70;99.90;;;;;;5027184;28;20056;-70
2023/08/09 06:17:45;;;;;;;10.32;6.07;;;14.70;99.90;;;;;;5026594;28;20036;-70
2023/08/09 06:20:14;;;;;;;13.82;7.10;;;14.70;99.90;;;;;;5027627;28;20064;-70
2023/08/09 06:22:41;;;;;;;12.88;5.88;;;14.80;99.90;;;;;;5034073;28;20024;-70
2023/08/09 06:25:08;;;;;;;13.18;6.28;;;14.80;99.90;;;;;;5034354;28;20079;-69
2023/08/09 06:27:34;;;;;;;10.30;6.35;;;14.90;99.90;;;;;;5035479;28;20041;-70
2023/08/09 06:30:00;;;;;;;9.88;5.93;;;14.90;99.90;;;;;;5028101;28;20029;-78
2023/08/09 06:32:26;;;;;;;12.00;6.40;;;15.00;99.90;;;;;;5028634;28;20025;-70
2023/08/09 06:34:52;;;;;;;12.80;6.47;;;15.00;99.90;;;;;;5039123;28;20048;-70
2023/08/09 06:37:18;;;;;;;13.57;6.47;;;15.00;99.90;;;;;;5036740;28;20025;-77
2023/08/09 06:39:44;;;;;;;11.70;6.57;;;15.10;99.90;;;;;;5029917;28;20114;-70
2023/08/09 06:42:12;;;;;;;13.33;7.27;;;15.20;99.90;;;;;;5030521;28;20034;-70
2023/08/09 06:44:38;;;;;;;12.25;6.03;;;15.20;99.90;;;;;;5028765;28;20439;-70
2023/08/09 06:47:04;;;;;;;13.18;5.82;;;15.20;99.90;;;;;;5023406;28;20472;-70
2023/08/09 06:49:30;;;;;;;16.07;7.27;;;15.30;99.90;;;;;;5022165;28;20113;-70
2023/08/09 06:51:58;;;;;;;14.53;6.60;;;15.30;99.90;;;;;;5028296;28;21743;-70
2023/08/09 06:54:24;;;;;;;9.27;5.68;;;15.40;99.90;;;;;;5028902;28;20021;-70
2023/08/09 06:56:50;;;;;;;14.30;7.22;;;15.40;99.90;;;;;;5032353;28;20149;-79
2023/08/09 06:59:16;;;;;;;9.73;6.40;;;15.50;99.90;;;;;;5028268;28;20041;-70
2023/08/09 07:01:44;;;;;;;13.10;6.83;;;15.60;99.90;;;;;;5020943;28;20274;-70
2023/08/09 07:04:10;;;;;;;10.77;6.95;;;15.70;99.90;;;;;;5022759;28;20250;-70
2023/08/09 07:06:35;;;;;;;13.10;5.87;;;15.80;99.90;;;;;;5027655;28;20036;-71
2023/08/09 07:09:01;;;;;;;15.57;6.50;;;15.80;99.90;;;;;;5027406;28;20412;-70
2023/08/09 07:11:27;;;;;;;9.97;6.23;;;15.90;99.90;;;;;;5022315;28;20038;-70
2023/08/09 07:13:53;;;;;;;10.30;5.50;;;16.10;99.90;;;;;;5029400;28;20429;-70
2023/08/09 07:16:18;;;;;;;9.00;5.90;;;16.10;99.90;;;;;;5021396;28;20033;-70
2023/08/09 07:18:44;;;;;;;12.50;6.67;;;16.20;99.90;;;;;;5027174;28;20040;-70
2023/08/09 07:21:10;;;;;;;11.60;6.20;;;16.20;99.90;;;;;;5035180;28;20033;-71
2023/08/09 07:23:36;;;;;;;11.70;5.93;;;16.30;99.90;;;;;;5042548;28;20032;-73
2023/08/09 07:26:01;;;;;;;11.23;5.73;;;16.40;99.90;;;;;;5031578;28;20037;-70
2023/08/09 07:28:28;;;;;;;12.53;6.00;;;16.50;99.90;;;;;;5022062;28;20049;-70
2023/08/09 07:30:55;;;;;;;;;;;16.70;99.90;;;;;;5031926;28;20034;-82
2023/08/09 07:33:21;;;;;;;13.45;5.43;;;16.80;99.90;;;;;;5039916;28;19943;-71
2023/08/09 07:35:51;;;;;;;12.30;5.90;;;17.00;99.90;;;;;;5014895;28;20038;-70
2023/08/09 07:38:17;;;;;;;10.18;5.63;;;17.20;99.90;;;;;;5047275;28;20029;-71
2023/08/09 07:40:43;;;;;;;10.60;6.32;;;17.40;99.90;;;;;;5028606;28;20030;-70
2023/08/09 07:43:08;;;;;;;10.90;6.57;;;17.50;99.90;;;;;;5032005;28;20032;-70
2023/08/09 07:45:35;;;;;;;11.50;6.43;;;17.70;99.90;;;;;;5031511;28;20124;-70
2023/08/09 07:48:00;;;;;;;9.98;6.65;;;17.90;99.90;;;;;;5027168;28;20030;-70
2023/08/09 07:50:27;;;;;;;9.53;4.93;;;18.00;99.90;;;;;;5021263;28;20064;-70
2023/08/09 07:52:52;;;;;;;7.60;4.68;;;18.20;99.90;;;;;;5034027;28;20116;-70
2023/08/09 07:55:18;;;;;;;14.67;5.63;;;18.40;99.90;;;;;;5029790;28;20113;-70
2023/08/09 07:57:44;;;;;;;6.90;3.87;;;18.50;99.90;;;;;;5034615;28;20446;-70
2023/08/09 08:00:12;;;;;;;7.17;4.30;;;18.70;99.90;;;;;;5024611;28;20026;-70
2023/08/09 08:02:46;;;;;;;6.88;4.47;;;18.80;99.90;;;;;;5038633;28;20030;-70
2023/08/09 08:05:13;;;;;;;6.15;3.80;;;19.10;99.90;;;;;;5032491;28;20362;-84
2023/08/09 08:07:40;;;;;;;3.55;2.85;;;19.30;99.90;;;;;;5032364;28;20091;-71
2023/08/09 08:10:09;;;;;;;;;;;19.30;99.90;;;;;;5031018;28;20076;-70
2023/08/09 08:12:38;;;;;;;4.97;2.90;;;19.20;99.90;;;;;;5037626;28;19921;-71
2023/08/09 08:15:05;;;;;;;7.43;3.55;;;19.00;99.90;;;;;;5035462;28;20034;-70
2023/08/09 08:17:35;;;;;;;4.65;2.58;;;18.80;99.90;;;;;;5033396;28;20030;-72
2023/08/09 08:20:03;;;;;;;3.97;1.63;;;18.70;99.90;;;;;;5034198;28;20026;-71
2023/08/09 08:22:30;;;;;;;3.25;2.25;;;18.50;99.90;;;;;;5036478;28;20029;-70
2023/08/09 08:24:56;;;;;;;3.43;2.13;;;18.30;99.90;;;;;;5052081;28;20060;-70
2023/08/09 08:27:21;;;;;;;4.00;2.17;;;18.30;99.90;;;;;;5037248;28;20029;-71
2023/08/09 08:29:47;;;;;;;4.47;2.53;;;18.60;99.90;;;;;;5033341;28;20100;-71
2023/08/09 08:32:13;;;;;;;2.90;2.20;;;18.90;99.90;;;;;;5036737;28;20091;-71
2023/08/09 08:34:39;;;;;;;3.53;2.40;;;19.00;99.90;;;;;;5035233;28;20038;-71
2023/08/09 08:37:04;;;;;;;3.47;2.47;;;18.90;99.90;;;;;;5036687;28;20067;-71
2023/08/09 08:39:35;;;;;;;3.37;2.27;;;18.80;99.90;;;;;;5035568;28;20072;-85
2023/08/09 08:42:01;;;;;;;3.28;2.00;;;18.80;99.90;;;;;;5044893;28;20030;-71
2023/08/09 08:44:27;;;;;;;3.47;2.25;;;18.80;99.90;;;;;;5028972;28;20021;-71
2023/08/09 08:46:53;;;;;;;3.77;2.07;;;18.90;99.90;;;;;;5036290;28;20045;-71
2023/08/09 08:49:24;;;;;;;3.10;1.55;;;19.00;99.90;;;;;;5039516;28;20091;-71
2023/08/09 08:51:54;;;;;;;3.13;2.03;;;19.30;99.90;;;;;;5028489;28;20314;-80
2023/08/09 08:54:21;;;;;;;4.65;2.08;;;19.40;99.90;;;;;;5028986;28;20104;-71
2023/08/09 08:56:49;;;;;;;;;;;19.50;99.90;;;;;;5026812;28;20029;-71
2023/08/09 08:59:16;;;;;;;3.20;1.60;;;19.60;99.90;;;;;;5031424;28;19948;-70
2023/08/09 09:01:42;;;;;;;3.47;1.60;;;19.80;99.90;;;;;;5045781;28;20037;-70
2023/08/09 09:04:08;;;;;;;4.15;1.52;;;20.00;99.90;;;;;;5036018;28;20029;-72
2023/08/09 09:06:34;;;;;;;1.88;1.65;;;20.00;99.90;;;;;;5033826;28;20029;-72
2023/08/09 09:09:00;;;;;;;4.23;1.70;;;20.30;99.90;;;;;;5021747;28;20455;-71
2023/08/09 09:11:26;;;;;;;4.17;1.63;;;20.50;99.90;;;;;;5034981;28;20064;-72
2023/08/09 09:13:52;;;;;;;3.23;1.50;;;20.60;99.90;;;;;;5026275;28;20112;-71
2023/08/09 09:16:19;;;;;;;2.05;1.85;;;20.50;99.90;;;;;;5025127;28;20423;-71
2023/08/09 09:18:47;;;;;;;9.38;2.38;;;20.30;99.90;;;;;;5027069;28;20026;-71
2023/08/09 09:21:14;;;;;;;2.88;1.90;;;20.20;99.90;;;;;;5027677;28;20310;-71
2023/08/09 09:23:40;;;;;;;2.90;1.92;;;20.00;99.90;;;;;;5023230;28;20022;-71
2023/08/09 09:26:08;;;;;;;3.13;2.20;;;19.90;99.90;;;;;;5023639;28;20079;-73
2023/08/09 09:28:45;;;;;;;4.68;2.40;;;19.80;99.90;;;;;;5031668;28;20112;-81
2023/08/09 09:31:13;;;;;;;3.97;2.15;;;20.00;99.90;;;;;;5024047;28;20026;-81
2023/08/09 09:33:43;;;;;;;3.30;1.95;;;20.20;99.90;;;;;;5032160;28;20025;-71
2023/08/09 09:36:11;;;;;;;2.13;1.83;;;20.30;99.90;;;;;;5036002;28;20073;-71
2023/08/09 09:38:38;;;;;;;6.20;2.75;;;20.60;99.90;;;;;;5024172;28;20037;-71
2023/08/09 09:41:05;;;;;;;;;;;20.90;99.90;;;;;;5029456;28;20035;-71
2023/08/09 09:43:32;;;;;;;3.35;1.95;;;21.00;99.90;;;;;;5018141;28;19906;-70
2023/08/09 09:45:59;;;;;;;6.25;2.30;;;21.00;99.90;;;;;;5025710;28;20395;-70
2023/08/09 09:48:25;;;;;;;3.47;2.55;;;21.10;99.90;;;;;;5027711;28;20030;-71
2023/08/09 09:50:51;;;;;;;2.53;1.55;;;21.10;99.90;;;;;;5035607;28;20325;-70
2023/08/09 09:53:18;;;;;;;3.63;2.13;;;21.20;99.90;;;;;;5036061;28;20037;-71
2023/08/09 09:55:45;;;;;;;3.20;2.10;;;21.20;99.90;;;;;;5033948;28;20026;-72
2023/08/09 09:58:14;;;;;;;1.95;1.70;;;21.20;99.90;;;;;;5028687;28;20102;-71
2023/08/09 10:00:48;;;;;;;2.40;1.70;;;21.20;99.90;;;;;;5029503;28;20025;-71
2023/08/09 10:03:17;;;;;;;2.22;1.85;;;21.10;99.90;;;;;;5043689;28;20036;-80
2023/08/09 10:05:45;;;;;;;3.95;1.60;;;21.10;99.90;;;;;;5032398;28;20371;-71
2023/08/09 10:08:12;;;;;;;4.68;1.98;;;21.10;99.90;;;;;;5028783;28;20325;-71
2023/08/09 10:10:39;;;;;;;4.68;1.85;;;21.10;99.90;;;;;;5020674;28;20034;-71
2023/08/09 10:13:07;;;;;;;3.88;1.75;;;21.10;99.90;;;;;;5053590;28;20075;-71
2023/08/09 10:15:46;;;;;;;4.05;1.42;;;21.00;99.90;;;;;;5032996;28;20017;-71
2023/08/09 10:18:29;;;;;;;2.28;1.20;;;21.00;99.90;;;;;;5029069;28;20030;-71
2023/08/09 10:20:58;;;;;;;2.42;1.17;;;20.90;99.90;;;;;;5029060;28;20057;-71
2023/08/09 10:23:26;;;;;;;2.58;1.70;;;21.00;99.90;;;;;;5031797;28;20022;-71
2023/08/09 10:25:53;;;;;;;3.30;1.42;;;21.10;99.90;;;;;;5047283;28;20034;-81
2023/08/09 10:28:44;;;;;;;2.15;1.00;;;21.00;99.90;;;;;;5026295;28;20160;-71
2023/08/09 10:31:10;;;;;;;4.70;1.30;;;21.10;99.90;;;;;;5028868;28;20169;-70
2023/08/09 10:33:36;;;;;;;1.27;1.15;;;21.30;99.90;;;;;;5027387;28;20017;-71
2023/08/09 10:36:02;;;;;;;2.20;0.77;;;21.40;99.90;;;;;;5030593;28;20058;-70
2023/08/09 10:38:31;;;;;;;1.05;0.80;;;21.30;99.90;;;;;;5025841;28;20416;-71
2023/08/09 10:40:58;;;;;;;1.38;0.90;;;21.10;99.90;;;;;;5030766;28;20037;-71
2023/08/09 10:43:26;;;;;;;0.60;0.60;;;21.10;99.90;;;;;;5025279;28;20392;-71
2023/08/09 10:45:55;;;;;;;1.08;0.70;;;21.20;99.90;;;;;;5027196;28;20044;-70
2023/08/09 10:48:26;;;;;;;1.60;0.82;;;21.50;99.90;;;;;;5028871;28;20086;-71
2023/08/09 10:51:08;;;;;;;1.50;0.68;;;21.80;99.90;;;;;;5033423;28;20108;-71
2023/08/09 10:54:03;;;;;;;1.00;0.90;;;22.10;99.90;;;;;;5045616;28;20017;-71
2023/08/09 10:56:41;;;;;;;1.67;1.00;;;22.30;99.90;;;;;;5027296;28;20098;-72
2023/08/09 10:59:09;;;;;;;1.00;0.95;;;22.40;99.90;;;;;;5050573;28;20030;-71
2023/08/09 11:01:36;;;;;;;3.88;0.98;;;22.10;99.90;;;;;;5031648;28;20025;-69
2023/08/09 11:04:10;;;;;;;0.95;0.88;;;22.00;99.90;;;;;;5034138;28;20029;-85
2023/08/09 11:06:41;;;;;;;1.00;0.65;;;22.10;99.90;;;;;;5031774;28;20030;-70
2023/08/09 11:09:19;;;;;;;3.78;0.80;;;22.20;99.90;;;;;;5024341;28;20478;-70
2023/08/09 11:11:47;;;;;;;3.13;0.98;;;22.30;99.90;;;;;;5036528;28;20323;-70
2023/08/09 11:14:18;;;;;;;1.52;0.70;;;22.50;99.90;;;;;;5035432;28;20021;-71
2023/08/09 11:16:45;;;;;;;4.40;1.08;;;22.70;99.90;;;;;;5033390;28;20017;-71
2023/08/09 11:19:16;;;;;;;1.95;1.00;;;22.80;99.90;;;;;;5031833;28;20025;-70
2023/08/09 11:21:53;;;;;;;1.95;0.90;;;23.00;99.90;;;;;;5030142;28;20028;-85
2023/08/09 11:24:22;;;;;;;1.52;0.85;;;23.10;99.90;;;;;;5026914;28;20071;-70
2023/08/09 11:26:50;;;;;;;2.13;1.05;;;22.80;99.90;;;;;;5040471;28;20063;-71
2023/08/09 11:29:17;;;;;;;2.80;0.80;;;22.50;99.90;;;;;;5032863;28;20092;-70
2023/08/09 11:31:54;;;;;;;3.90;1.08;;;22.40;99.90;;;;;;5037690;28;20028;-80
2023/08/09 11:34:22;;;;;;;1.73;0.82;;;22.40;99.90;;;;;;5040134;28;20043;-70
2023/08/09 11:36:50;;;;;;;2.72;1.15;;;22.20;99.90;;;;;;5038025;28;20083;-71
2023/08/09 11:39:16;;;;;;;2.33;0.65;;;22.30;99.90;;;;;;5027547;28;20083;-77
2023/08/09 11:41:48;;;;;;;3.20;0.82;;;22.10;99.90;;;;;;5032080;28;20444;-70
2023/08/09 11:44:14;;;;;;;1.05;0.82;;;21.90;99.90;;;;;;5039391;28;20034;-71
2023/08/09 11:46:45;;;;;;;1.42;0.68;;;21.80;99.90;;;;;;5034457;28;20053;-70
2023/08/09 11:49:11;;;;;;;3.50;0.88;;;21.90;99.90;;;;;;5027868;28;20118;-71
2023/08/09 11:51:37;;;;;;;1.45;0.98;;;22.10;99.90;;;;;;5037431;28;20429;-71
2023/08/09 11:54:07;;;;;;;0.60;0.60;;;22.10;99.90;;;;;;5044774;28;20029;-70
2023/08/09 11:56:35;;;;;;;3.17;0.70;;;21.70;99.90;;;;;;5041785;28;20598;-70
2023/08/09 11:59:03;;;;;;;2.38;0.80;;;21.40;99.90;;;;;;5040052;28;20290;-70
2023/08/09 12:01:33;;;;;;;2.47;0.98;;;21.30;99.90;;;;;;5040327;28;20029;-70
2023/08/09 12:04:04;;;;;;;2.67;0.70;;;21.20;99.90;;;;;;5047199;28;20036;-71
2023/08/09 12:06:37;;;;;;;5.00;0.70;;;21.00;99.90;;;;;;5034538;28;20109;-71
2023/08/09 12:09:37;;;;;;;0.90;0.65;;;20.80;99.90;;;;;;5027740;28;20029;-80
2023/08/09 12:12:36;;;;;;;4.88;0.85;;;20.80;99.90;;;;;;5039773;28;20033;-70
2023/08/09 12:15:02;;;;;;;3.10;0.57;;;21.10;99.90;;;;;;5034634;28;20026;-71
2023/08/09 12:17:30;;;;;;;3.90;1.20;;;21.50;99.90;;;;;;5033424;28;20033;-80
2023/08/09 12:20:00;;;;;;;3.05;0.70;;;21.90;99.90;;;;;;5036517;28;20055;-71
2023/08/09 12:22:28;;;;;;;0.60;0.50;;;22.20;99.90;;;;;;5038955;28;20035;-71
2023/08/09 12:24:58;;;;;;;2.35;0.50;;;22.40;99.90;;;;;;5040066;28;20025;-71
2023/08/09 12:27:24;;;;;;;3.38;0.65;;;22.30;99.90;;;;;;5035746;28;20032;-69
2023/08/09 12:29:50;;;;;;;3.00;0.70;;;22.20;99.90;;;;;;5033755;28;20040;-70
2023/08/09 12:32:16;;;;;;;1.00;0.60;;;21.90;99.90;;;;;;5047002;28;20033;-69
2023/08/09 12:34:42;;;;;;;2.85;0.93;;;21.60;99.90;;;;;;5062066;28;20278;-71
2023/08/09 12:37:11;;;;;;;1.38;0.63;;;21.50;99.90;;;;;;5040575;28;20025;-71
2023/08/09 12:39:37;;;;;;;1.88;0.82;;;21.80;99.90;;;;;;5046156;28;20029;-71
2023/08/09 12:42:03;;;;;;;4.90;1.53;;;22.00;99.90;;;;;;5045839;28;20079;-79
2023/08/09 12:44:30;;;;;;;5.43;0.75;;;22.20;99.90;;;;;;5039868;28;20038;-70
2023/08/09 12:46:55;;;;;;;1.42;0.80;;;22.40;99.90;;;;;;5045975;28;20708;-71